createdAt,value
2023-05-11T00:00:10.078Z,83.76
2023-05-11T00:01:42.820Z,83.75
2023-05-11T00:03:14.618Z,82.91
2023-05-11T00:04:46.361Z,83.34
2023-05-11T00:06:17.937Z,82.95
2023-05-11T00:07:49.584Z,82.50
2023-05-11T00:09:21.442Z,82.14
2023-05-11T00:10:54.488Z,82.44
2023-05-11T00:12:26.251Z,83.10
2023-05-11T00:13:57.895Z,82.53
2023-05-11T00:15:29.692Z,83.27
2023-05-11T00:17:01.288Z,83.48
2023-05-11T00:18:32.975Z,82.99
2023-05-11T00:20:05.499Z,83.19
2023-05-11T00:21:37.380Z,83.27
2023-05-11T00:23:09.022Z,83.71
2023-05-11T00:24:40.834Z,83.22
2023-05-11T00:26:13.864Z,83.23
2023-05-11T00:27:46.312Z,83.48
2023-05-11T00:29:18.016Z,82.94
2023-05-11T00:30:49.611Z,82.66
2023-05-11T00:32:21.416Z,82.47
2023-05-11T00:33:54.770Z,82.76
2023-05-11T00:35:26.502Z,83.13
2023-05-11T00:36:58.154Z,83.26
2023-05-11T00:38:29.858Z,83.59
2023-05-11T00:40:01.500Z,83.43
2023-05-11T00:41:34.523Z,83.73
2023-05-11T00:43:06.171Z,83.79
2023-05-11T00:44:37.812Z,84.44
2023-05-11T00:46:09.451Z,83.02
2023-05-11T00:47:41.550Z,82.86
2023-05-11T00:49:17.109Z,83.09
2023-05-11T00:50:49.160Z,83.57
2023-05-11T00:52:21.387Z,83.02
2023-05-11T00:53:53.152Z,82.70
2023-05-11T00:55:24.831Z,83.29
2023-05-11T00:56:57.774Z,83.14
2023-05-11T00:58:29.483Z,82.37
2023-05-11T01:00:01.831Z,82.58
2023-05-11T01:01:33.491Z,82.28
2023-05-11T01:03:05.122Z,83.05
2023-05-11T01:04:36.802Z,82.97
2023-05-11T01:06:10.914Z,82.48
2023-05-11T01:07:47.234Z,82.77
2023-05-11T01:09:25.330Z,81.89
2023-05-11T01:10:59.248Z,82.78
2023-05-11T01:12:35.478Z,82.27
2023-05-11T01:14:09.778Z,82.17
2023-05-11T01:15:43.950Z,81.22
2023-05-11T01:17:18.486Z,81.67
2023-05-11T01:18:53.400Z,81.82
2023-05-11T01:20:26.873Z,81.29
2023-05-11T01:21:58.513Z,82.02
2023-05-11T01:23:44.170Z,81.88
2023-05-11T01:25:22.639Z,81.75
2023-05-11T01:27:10.315Z,81.81
2023-05-11T01:29:07.751Z,82.10
2023-05-11T01:30:43.683Z,82.07
2023-05-11T01:32:16.866Z,81.90
2023-05-11T01:33:51.033Z,82.08
2023-05-11T01:35:24.509Z,81.30
2023-05-11T01:36:58.634Z,81.57
2023-05-11T01:38:31.427Z,82.03
2023-05-11T01:40:05.166Z,82.16
2023-05-11T01:41:37.766Z,82.16
2023-05-11T01:43:12.053Z,82.08
2023-05-11T01:44:44.632Z,81.89
2023-05-11T01:46:17.660Z,82.21
2023-05-11T01:47:50.065Z,82.80
2023-05-11T01:49:21.775Z,82.85
2023-05-11T01:50:53.401Z,83.17
2023-05-11T01:52:25.412Z,82.73
2023-05-11T01:53:57.041Z,83.29
2023-05-11T01:55:28.691Z,82.88
2023-05-11T01:57:00.762Z,84.15
2023-05-11T01:58:32.678Z,84.36
2023-05-11T02:00:05.467Z,84.79
2023-05-11T02:01:38.472Z,84.31
2023-05-11T02:03:10.180Z,84.37
2023-05-11T02:04:42.470Z,84.67
2023-05-11T02:06:14.399Z,85.53
2023-05-11T02:07:46.164Z,85.05
2023-05-11T02:09:17.879Z,85.52
2023-05-11T02:10:49.790Z,85.26
2023-05-11T02:12:21.401Z,85.68
2023-05-11T02:13:53.062Z,84.39
2023-05-11T02:15:24.800Z,86.02
2023-05-11T02:16:57.837Z,85.81
2023-05-11T02:18:29.600Z,86.09
2023-05-11T02:20:01.374Z,86.32
2023-05-11T02:21:33.140Z,86.25
2023-05-11T02:23:04.878Z,86.08
2023-05-11T02:24:36.486Z,85.83
2023-05-11T02:26:08.526Z,86.96
2023-05-11T02:27:40.764Z,86.56
2023-05-11T02:29:12.386Z,86.78
2023-05-11T02:30:45.752Z,87.37
2023-05-11T02:32:20.322Z,87.78
2023-05-11T02:33:52.658Z,88.40
2023-05-11T02:35:26.303Z,87.35
2023-05-11T02:36:59.597Z,88.21
2023-05-11T02:38:32.633Z,87.94
2023-05-11T02:40:08.212Z,89.01
2023-05-11T02:41:41.787Z,87.98
2023-05-11T02:43:14.211Z,87.71
2023-05-11T02:44:51.212Z,89.30
2023-05-11T02:46:28.610Z,87.88
2023-05-11T02:48:03.635Z,88.69
2023-05-11T02:49:35.963Z,88.73
2023-05-11T02:51:08.449Z,89.13
2023-05-11T02:52:42.421Z,88.63
2023-05-11T02:54:14.138Z,88.28
2023-05-11T02:55:46.306Z,88.70
2023-05-11T02:57:18.261Z,88.16
2023-05-11T02:58:49.979Z,88.77
2023-05-11T03:00:21.978Z,89.83
2023-05-11T03:01:54.283Z,90.81
2023-05-11T03:03:28.160Z,90.01
2023-05-11T03:04:59.919Z,89.67
2023-05-11T03:06:31.648Z,89.73
2023-05-11T03:08:03.506Z,89.97
2023-05-11T03:09:35.225Z,90.12
2023-05-11T03:11:06.878Z,89.55
2023-05-11T03:12:38.545Z,90.09
2023-05-11T03:14:10.381Z,90.04
2023-05-11T03:15:42.101Z,90.01
2023-05-11T03:17:13.698Z,89.58
2023-05-11T03:18:46.769Z,89.44
2023-05-11T03:20:18.668Z,90.63
2023-05-11T03:21:50.566Z,90.82
2023-05-11T03:23:22.185Z,90.22
2023-05-11T03:24:53.784Z,90.04
2023-05-11T03:26:25.542Z,90.38
2023-05-11T03:27:57.282Z,90.57
2023-05-11T03:29:29.084Z,88.73
2023-05-11T03:31:00.737Z,89.71
2023-05-11T03:32:32.447Z,90.07
2023-05-11T03:34:05.457Z,90.83
2023-05-11T03:35:37.701Z,90.70
2023-05-11T03:37:10.674Z,89.82
2023-05-11T03:38:42.297Z,89.61
2023-05-11T03:40:14.580Z,90.30
2023-05-11T03:41:46.257Z,89.75
2023-05-11T03:43:18.279Z,89.14
2023-05-11T03:44:49.971Z,89.69
2023-05-11T03:46:22.495Z,90.42
2023-05-11T03:47:54.136Z,90.50
2023-05-11T03:49:27.350Z,90.74
2023-05-11T03:50:59.139Z,91.41
2023-05-11T03:52:30.815Z,91.11
2023-05-11T03:54:02.820Z,90.92
2023-05-11T03:55:34.449Z,90.65
2023-05-11T03:57:06.184Z,90.86
2023-05-11T03:58:39.205Z,90.57
2023-05-11T04:00:11.751Z,91.01
2023-05-11T04:01:43.456Z,91.29
2023-05-11T04:03:15.267Z,90.15
2023-05-11T04:04:48.393Z,90.32
2023-05-11T04:06:20.381Z,90.04
2023-05-11T04:07:52.114Z,89.41
2023-05-11T04:09:23.979Z,89.29
2023-05-11T04:10:55.544Z,88.94
2023-05-11T04:12:27.169Z,88.77
2023-05-11T04:13:58.803Z,89.46
2023-05-11T04:15:30.402Z,90.54
2023-05-11T04:17:02.003Z,90.67
2023-05-11T04:18:33.799Z,90.33
2023-05-11T04:20:08.105Z,90.75
2023-05-11T04:21:39.756Z,91.70
2023-05-11T04:23:11.395Z,89.80
2023-05-11T04:24:43.166Z,91.09
2023-05-11T04:26:14.924Z,90.56
2023-05-11T04:27:46.586Z,91.15
2023-05-11T04:29:18.273Z,90.36
2023-05-11T04:30:53.193Z,90.31
2023-05-11T04:32:25.009Z,90.50
2023-05-11T04:33:56.604Z,90.68
2023-05-11T04:35:29.633Z,91.04
2023-05-11T04:37:07.080Z,89.81
2023-05-11T04:38:38.778Z,90.76
2023-05-11T04:40:11.214Z,89.99
2023-05-11T04:41:42.876Z,90.54
2023-05-11T04:43:14.725Z,91.14
2023-05-11T04:44:46.372Z,91.06
2023-05-11T04:46:18.049Z,90.70
2023-05-11T04:47:49.778Z,91.22
2023-05-11T04:49:21.886Z,91.04
2023-05-11T04:50:55.004Z,91.43
2023-05-11T04:52:26.726Z,91.47
2023-05-11T04:53:58.739Z,89.97
2023-05-11T04:55:30.363Z,90.71
2023-05-11T04:57:02.000Z,90.53
2023-05-11T04:58:33.677Z,90.37
2023-05-11T05:00:08.784Z,89.67
2023-05-11T05:01:40.689Z,90.49
2023-05-11T05:03:12.334Z,91.83
2023-05-11T05:04:43.984Z,90.62
2023-05-11T05:06:16.961Z,91.11
2023-05-11T05:07:48.548Z,91.13
2023-05-11T05:09:20.292Z,90.03
2023-05-11T05:10:51.901Z,90.65
2023-05-11T05:12:23.878Z,90.49
2023-05-11T05:13:55.696Z,90.01
2023-05-11T05:15:27.419Z,90.48
2023-05-11T05:17:01.331Z,90.29
2023-05-11T05:18:33.748Z,89.85
2023-05-11T05:20:06.678Z,90.36
2023-05-11T05:21:40.694Z,90.48
2023-05-11T05:23:12.400Z,91.83
2023-05-11T05:24:44.060Z,89.90
2023-05-11T05:26:15.799Z,90.28
2023-05-11T05:27:47.402Z,89.78
2023-05-11T05:29:19.220Z,90.37
2023-05-11T05:30:50.986Z,90.79
2023-05-11T05:32:22.809Z,90.76
2023-05-11T05:33:54.483Z,90.73
2023-05-11T05:35:26.233Z,90.42
2023-05-11T05:36:59.283Z,91.25
2023-05-11T05:38:30.957Z,90.98
2023-05-11T05:40:02.630Z,90.90
2023-05-11T05:41:34.224Z,90.71
2023-05-11T05:43:06.088Z,89.96
2023-05-11T05:44:37.782Z,90.17
2023-05-11T05:46:09.470Z,90.58
2023-05-11T05:47:41.832Z,89.31
2023-05-11T05:49:13.650Z,89.73
2023-05-11T05:50:45.421Z,90.22
2023-05-11T05:52:18.410Z,90.47
2023-05-11T05:53:49.983Z,90.39
2023-05-11T05:55:22.362Z,90.40
2023-05-11T05:56:54.003Z,89.82
2023-05-11T05:58:25.687Z,90.66
2023-05-11T05:59:57.506Z,90.38
2023-05-11T06:01:29.205Z,89.80
2023-05-11T06:03:01.068Z,89.83
2023-05-11T06:04:33.064Z,90.60
2023-05-11T06:06:05.078Z,90.21
2023-05-11T06:07:38.404Z,90.67
2023-05-11T06:09:10.044Z,91.39
2023-05-11T06:10:41.641Z,90.71
2023-05-11T06:12:13.360Z,90.83
2023-05-11T06:13:45.127Z,90.65
2023-05-11T06:15:16.976Z,91.21
2023-05-11T06:16:48.610Z,91.13
2023-05-11T06:18:20.334Z,91.58
2023-05-11T06:19:52.570Z,91.51
2023-05-11T06:21:24.239Z,91.84
2023-05-11T06:22:57.206Z,91.15
2023-05-11T06:24:29.027Z,90.14
2023-05-11T06:26:00.643Z,91.11
2023-05-11T06:27:32.265Z,91.42
2023-05-11T06:29:03.919Z,90.91
2023-05-11T06:30:35.660Z,91.05
2023-05-11T06:32:07.435Z,91.21
2023-05-11T06:33:39.297Z,91.15
2023-05-11T06:35:11.198Z,91.57
2023-05-11T06:36:42.853Z,91.20
2023-05-11T06:38:15.879Z,90.54
2023-05-11T06:39:47.556Z,90.90
2023-05-11T06:41:19.171Z,91.89
2023-05-11T06:42:50.835Z,91.56
2023-05-11T06:44:22.439Z,91.03
2023-05-11T06:45:54.118Z,91.02
2023-05-11T06:47:25.940Z,89.95
2023-05-11T06:48:57.624Z,90.92
2023-05-11T06:50:29.792Z,90.20
2023-05-11T06:52:02.028Z,90.47
2023-05-11T06:53:35.553Z,90.04
2023-05-11T06:55:08.123Z,89.98
2023-05-11T06:56:39.827Z,89.58
2023-05-11T06:58:11.440Z,90.79
2023-05-11T06:59:44.088Z,90.55
2023-05-11T07:01:16.075Z,89.77
2023-05-11T07:02:47.737Z,89.85
2023-05-11T07:04:19.509Z,90.36
2023-05-11T07:05:51.197Z,90.53
2023-05-11T07:07:22.811Z,89.66
2023-05-11T07:08:56.742Z,89.57
2023-05-11T07:10:28.390Z,89.15
2023-05-11T07:12:00.014Z,90.24
2023-05-11T07:13:31.661Z,90.48
2023-05-11T07:15:03.658Z,90.07
2023-05-11T07:16:38.311Z,89.46
2023-05-11T07:18:10.113Z,89.83
2023-05-11T07:19:41.811Z,88.52
2023-05-11T07:21:13.442Z,88.75
2023-05-11T07:22:45.044Z,90.57
2023-05-11T07:24:18.053Z,89.26
2023-05-11T07:25:49.670Z,89.85
2023-05-11T07:27:21.372Z,89.29
2023-05-11T07:28:53.001Z,89.41
2023-05-11T07:30:25.756Z,88.50
2023-05-11T07:31:57.736Z,90.04
2023-05-11T07:33:29.436Z,89.28
2023-05-11T07:35:01.077Z,89.45
2023-05-11T07:36:33.044Z,89.23
2023-05-11T07:38:07.753Z,89.00
2023-05-11T07:39:40.908Z,88.48
2023-05-11T07:41:12.873Z,90.23
2023-05-11T07:42:44.802Z,87.92
2023-05-11T07:44:17.335Z,87.53
2023-05-11T07:45:49.017Z,88.55
2023-05-11T07:47:21.045Z,87.64
2023-05-11T07:49:03.598Z,87.33
2023-05-11T07:50:44.962Z,88.63
2023-05-11T07:52:16.583Z,87.37
2023-05-11T07:53:48.372Z,87.58
2023-05-11T07:55:24.965Z,86.70
2023-05-11T07:56:56.976Z,87.67
2023-05-11T07:58:28.630Z,87.07
2023-05-11T08:00:00.351Z,87.35
2023-05-11T08:01:32.492Z,86.37
2023-05-11T08:03:04.373Z,86.80
2023-05-11T08:04:36.400Z,86.21
2023-05-11T08:06:08.647Z,86.49
2023-05-11T08:07:41.660Z,87.20
2023-05-11T08:09:13.458Z,86.87
2023-05-11T08:10:46.665Z,86.88
2023-05-11T08:12:18.273Z,85.71
2023-05-11T08:13:49.909Z,85.76
2023-05-11T08:15:21.803Z,87.16
2023-05-11T08:16:53.848Z,86.71
2023-05-11T08:18:26.294Z,85.38
2023-05-11T08:19:57.929Z,85.88
2023-05-11T08:21:30.586Z,84.61
2023-05-11T08:23:02.239Z,83.99
2023-05-11T08:24:33.835Z,85.25
2023-05-11T08:26:07.099Z,85.02
2023-05-11T08:27:39.078Z,83.42
2023-05-11T08:29:11.389Z,84.25
2023-05-11T08:30:43.017Z,84.22
2023-05-11T08:32:14.741Z,84.31
2023-05-11T08:33:46.606Z,83.26
2023-05-11T08:35:18.476Z,83.84
2023-05-11T08:36:50.340Z,82.36
2023-05-11T08:38:21.962Z,82.58
2023-05-11T08:39:53.767Z,83.88
2023-05-11T08:41:26.771Z,82.61
2023-05-11T08:42:58.466Z,82.68
2023-05-11T08:44:30.128Z,81.71
2023-05-11T08:46:03.862Z,82.74
2023-05-11T08:47:35.516Z,82.10
2023-05-11T08:49:07.274Z,82.88
2023-05-11T08:50:38.902Z,82.95
2023-05-11T08:52:10.508Z,83.11
2023-05-11T08:53:42.323Z,82.45
2023-05-11T08:55:13.941Z,82.08
2023-05-11T08:56:47.170Z,81.07
2023-05-11T08:58:21.790Z,81.81
2023-05-11T08:59:53.550Z,80.42
2023-05-11T09:01:25.433Z,80.99
2023-05-11T09:02:57.318Z,81.36
2023-05-11T09:04:29.007Z,80.78
2023-05-11T09:06:00.652Z,80.67
2023-05-11T09:07:32.287Z,80.24
2023-05-11T09:09:04.070Z,81.51
2023-05-11T09:10:36.259Z,81.01
2023-05-11T09:12:09.755Z,80.13
2023-05-11T09:13:41.612Z,79.71
2023-05-11T09:15:13.582Z,79.58
2023-05-11T09:16:45.940Z,78.93
2023-05-11T09:18:17.744Z,78.82
2023-05-11T09:20:00.171Z,77.72
2023-05-11T09:21:31.981Z,78.60
2023-05-11T09:23:03.641Z,78.33
2023-05-11T09:24:35.416Z,77.77
2023-05-11T09:26:13.667Z,77.31
2023-05-11T09:27:47.222Z,76.42
2023-05-11T09:29:19.736Z,77.61
2023-05-11T09:30:51.677Z,78.25
2023-05-11T09:32:23.369Z,78.66
2023-05-11T09:34:08.113Z,77.50
2023-05-11T09:35:40.292Z,78.43
2023-05-11T09:37:16.422Z,79.32
2023-05-11T09:38:48.044Z,79.32
2023-05-11T09:40:33.526Z,79.35
2023-05-11T09:42:15.870Z,79.10
2023-05-11T09:43:50.244Z,80.41
2023-05-11T09:45:37.252Z,80.68
2023-05-11T09:47:12.903Z,78.68
2023-05-11T09:48:44.542Z,78.38
2023-05-11T09:50:18.080Z,79.10
2023-05-11T09:51:51.679Z,78.44
2023-05-11T09:53:26.610Z,78.22
2023-05-11T09:54:58.326Z,76.68
2023-05-11T09:56:48.921Z,77.70
2023-05-11T09:58:20.626Z,77.40
2023-05-11T09:59:53.900Z,78.08
2023-05-11T10:01:30.388Z,79.11
2023-05-11T10:03:03.208Z,79.66
2023-05-11T10:04:35.040Z,80.34
2023-05-11T10:06:07.307Z,78.99
2023-05-11T10:07:39.332Z,78.31
2023-05-11T10:10:43.013Z,77.65
2023-05-11T10:12:14.713Z,78.37
2023-05-11T10:13:46.420Z,78.22
2023-05-11T10:15:25.196Z,77.97
2023-05-11T10:16:57.576Z,76.86
2023-05-11T10:18:29.338Z,77.49
2023-05-11T10:20:01.758Z,77.76
2023-05-11T10:21:34.269Z,77.76
2023-05-11T10:23:06.012Z,78.23
2023-05-11T10:24:37.974Z,77.38
2023-05-11T10:26:09.775Z,77.95
2023-05-11T10:27:41.651Z,76.71
2023-05-11T10:29:13.335Z,76.58
2023-05-11T10:30:46.371Z,76.23
2023-05-11T10:32:18.531Z,76.04
2023-05-11T10:33:51.179Z,76.02
2023-05-11T10:35:22.998Z,76.66
2023-05-11T10:36:54.636Z,76.63
2023-05-11T10:38:26.309Z,76.61
2023-05-11T10:39:58.091Z,75.97
2023-05-11T10:41:39.664Z,76.65
2023-05-11T10:43:33.669Z,75.98
2023-05-11T10:45:24.101Z,78.14
2023-05-11T10:47:18.989Z,75.89
2023-05-11T10:49:06.438Z,76.41
2023-05-11T10:50:45.929Z,75.87
2023-05-11T10:52:29.461Z,75.36
2023-05-11T10:54:09.308Z,76.15
2023-05-11T10:55:50.881Z,74.68
2023-05-11T10:57:43.383Z,77.91
2023-05-11T10:59:32.772Z,76.97
2023-05-11T11:01:21.400Z,76.40
2023-05-11T11:02:54.467Z,76.88
2023-05-11T11:04:41.905Z,77.42
2023-05-11T11:06:22.784Z,76.79
2023-05-11T11:07:58.875Z,78.76
2023-05-11T11:09:39.479Z,82.17
2023-05-11T11:11:31.972Z,84.31
2023-05-11T11:13:05.012Z,82.65
2023-05-11T11:14:55.026Z,83.19
2023-05-11T11:16:28.077Z,81.99
2023-05-11T11:18:22.357Z,82.49
2023-05-11T11:19:54.143Z,85.00
2023-05-11T11:21:45.432Z,83.51
2023-05-11T11:23:41.436Z,83.00
2023-05-11T11:25:13.435Z,83.84
2023-05-11T11:26:49.256Z,83.71
2023-05-11T11:28:20.892Z,83.92
2023-05-11T11:30:20.174Z,85.49
2023-05-11T11:31:51.947Z,85.22
2023-05-11T11:33:34.241Z,84.91
2023-05-11T11:35:08.300Z,83.74
2023-05-11T11:37:05.044Z,82.96
2023-05-11T11:38:57.188Z,83.73
2023-05-11T11:40:43.187Z,82.94
2023-05-11T11:42:37.835Z,82.44
2023-05-11T11:44:20.487Z,81.84
2023-05-11T11:45:53.170Z,80.94
2023-05-11T11:47:26.878Z,81.51
2023-05-11T11:49:08.288Z,80.70
2023-05-11T11:50:44.167Z,81.68
2023-05-11T11:52:33.405Z,81.86
2023-05-11T11:54:05.342Z,78.88
2023-05-11T11:55:50.002Z,79.75
2023-05-11T11:57:51.317Z,81.32
2023-05-11T11:59:23.006Z,81.35
2023-05-11T12:00:55.120Z,82.21
2023-05-11T12:02:27.484Z,82.38
2023-05-11T12:04:39.234Z,82.94
2023-05-11T12:06:11.161Z,81.53
2023-05-11T12:07:43.751Z,82.35
2023-05-11T12:09:17.260Z,82.03
2023-05-11T12:10:54.197Z,82.79
2023-05-11T12:12:26.016Z,82.94
2023-05-11T12:13:57.830Z,84.19
2023-05-11T12:15:30.446Z,83.71
2023-05-11T12:17:03.555Z,83.43
2023-05-11T12:18:35.239Z,84.53
2023-05-11T12:20:15.667Z,83.70
2023-05-11T12:21:47.389Z,85.47
2023-05-11T12:23:19.020Z,86.83
2023-05-11T12:24:50.731Z,87.10
2023-05-11T12:26:23.580Z,85.73
2023-05-11T12:27:58.048Z,85.79
2023-05-11T12:29:29.685Z,87.84
2023-05-11T12:31:01.310Z,88.00
2023-05-11T12:32:33.007Z,87.14
2023-05-11T12:34:04.737Z,86.41
2023-05-11T12:35:40.314Z,86.42
2023-05-11T12:37:11.945Z,86.82
2023-05-11T12:38:44.311Z,85.17
2023-05-11T12:40:15.935Z,86.51
2023-05-11T12:41:48.399Z,87.47
2023-05-11T12:43:20.997Z,86.10
2023-05-11T12:44:54.005Z,85.57
2023-05-11T12:46:25.720Z,86.64
2023-05-11T12:47:58.392Z,86.75
2023-05-11T12:49:30.205Z,86.79
2023-05-11T12:51:03.954Z,86.74
2023-05-11T12:52:35.826Z,87.29
2023-05-11T12:54:07.455Z,87.21
2023-05-11T12:55:39.244Z,87.46
2023-05-11T12:57:22.922Z,87.39
2023-05-11T12:58:54.931Z,87.49
2023-05-11T13:00:26.718Z,88.18
2023-05-11T13:02:11.321Z,87.60
2023-05-11T13:03:45.865Z,87.47
2023-05-11T13:05:19.737Z,87.49
2023-05-11T13:07:01.443Z,86.66
2023-05-11T13:08:33.073Z,86.02
2023-05-11T13:10:05.556Z,86.58
2023-05-11T13:11:37.168Z,86.04
2023-05-11T13:13:08.780Z,87.03
2023-05-11T13:14:40.498Z,87.16
2023-05-11T13:16:12.187Z,87.51
2023-05-11T13:17:43.906Z,86.47
2023-05-11T13:19:26.341Z,87.04
2023-05-11T13:21:07.658Z,86.63
2023-05-11T13:22:40.691Z,86.42
2023-05-11T13:24:19.872Z,87.65
2023-05-11T13:25:53.314Z,87.08
2023-05-11T13:27:24.954Z,87.36
2023-05-11T13:29:09.247Z,87.62
2023-05-11T13:30:42.306Z,86.29
2023-05-11T13:32:14.182Z,86.45
2023-05-11T13:33:46.412Z,86.63
2023-05-11T13:35:18.199Z,86.61
2023-05-11T13:36:50.285Z,87.38
2023-05-11T13:38:23.557Z,87.16
2023-05-11T13:39:55.321Z,88.94
2023-05-11T13:41:26.978Z,88.55
2023-05-11T13:42:58.687Z,88.43
2023-05-11T13:44:30.703Z,87.89
2023-05-11T13:46:04.863Z,87.82
2023-05-11T13:47:36.795Z,87.62
2023-05-11T13:49:08.659Z,87.23
2023-05-11T13:50:40.326Z,86.89
2023-05-11T13:52:12.082Z,86.61
2023-05-11T13:53:45.127Z,86.37
2023-05-11T13:55:16.907Z,86.98
2023-05-11T13:56:48.783Z,85.03
2023-05-11T13:58:20.449Z,84.53
2023-05-11T13:59:52.114Z,85.09
2023-05-11T14:01:24.530Z,82.61
2023-05-11T14:02:58.127Z,84.79
2023-05-11T14:04:29.919Z,84.27
2023-05-11T14:06:01.628Z,84.42
2023-05-11T14:07:45.824Z,87.04
2023-05-11T14:09:20.610Z,86.77
2023-05-11T14:10:52.212Z,86.87
2023-05-11T14:12:23.820Z,85.72
2023-05-11T14:13:55.569Z,83.53
2023-05-11T14:15:27.230Z,84.25
2023-05-11T14:16:58.909Z,85.60
2023-05-11T14:18:31.161Z,83.50
2023-05-11T14:20:03.010Z,80.09
2023-05-11T14:21:34.638Z,84.47
2023-05-11T14:23:06.500Z,86.57
2023-05-11T14:24:39.598Z,86.68
2023-05-11T14:26:11.536Z,86.95
2023-05-11T14:27:43.928Z,87.22
2023-05-11T14:29:15.591Z,86.31
2023-05-11T14:30:50.730Z,86.77
2023-05-11T14:32:22.704Z,87.28
2023-05-11T14:33:56.067Z,87.07
2023-05-11T14:35:28.042Z,88.85
2023-05-11T14:37:01.252Z,88.16
2023-05-11T14:38:33.177Z,87.81
2023-05-11T14:40:07.592Z,89.22
2023-05-11T14:41:39.336Z,89.14
2023-05-11T14:43:11.047Z,88.83
2023-05-11T14:44:42.793Z,88.28
2023-05-11T14:46:14.537Z,87.61
2023-05-11T14:47:46.229Z,87.91
2023-05-11T14:49:18.073Z,87.90
2023-05-11T14:50:49.921Z,89.02
2023-05-11T14:52:22.013Z,88.18
2023-05-11T14:53:53.602Z,88.72
2023-05-11T14:55:26.651Z,88.33
2023-05-11T14:56:59.551Z,87.30
2023-05-11T14:58:31.354Z,88.09
2023-05-11T15:00:03.227Z,87.74
2023-05-11T15:01:34.893Z,88.18
2023-05-11T15:03:07.466Z,86.97
2023-05-11T15:04:41.538Z,88.29
2023-05-11T15:06:20.893Z,87.55
2023-05-11T15:07:53.481Z,88.27
2023-05-11T15:09:25.631Z,87.69
2023-05-11T15:10:58.929Z,87.86
2023-05-11T15:12:30.573Z,86.90
2023-05-11T15:14:02.288Z,86.27
2023-05-11T15:15:34.126Z,86.40
2023-05-11T15:17:05.974Z,87.48
2023-05-11T15:18:37.692Z,88.77
2023-05-11T15:20:10.261Z,88.84
2023-05-11T15:21:41.903Z,86.94
2023-05-11T15:23:16.743Z,86.99
2023-05-11T15:24:48.801Z,87.20
2023-05-11T15:26:22.830Z,87.64
2023-05-11T15:27:54.515Z,89.23
2023-05-11T15:29:26.169Z,87.45
2023-05-11T15:30:58.281Z,87.97
2023-05-11T15:32:29.925Z,87.44
2023-05-11T15:34:02.128Z,88.61
2023-05-11T15:35:34.362Z,88.58
2023-05-11T15:37:06.218Z,88.49
2023-05-11T15:38:37.915Z,88.31
2023-05-11T15:40:09.868Z,88.91
2023-05-11T15:41:43.398Z,89.49
2023-05-11T15:43:15.243Z,89.50
2023-05-11T15:44:47.336Z,87.73
2023-05-11T15:46:19.179Z,88.05
2023-05-11T15:47:50.896Z,88.34
2023-05-11T15:49:22.531Z,88.28
2023-05-11T15:50:55.165Z,88.43
2023-05-11T15:52:26.822Z,88.52
2023-05-11T15:53:58.628Z,87.99
2023-05-11T15:55:30.289Z,88.60
2023-05-11T15:57:03.544Z,88.61
2023-05-11T15:58:35.260Z,89.10
2023-05-11T16:00:10.503Z,89.11
2023-05-11T16:01:42.413Z,89.39
2023-05-11T16:03:14.395Z,89.20
2023-05-11T16:04:46.085Z,88.26
2023-05-11T16:06:17.697Z,88.81
2023-05-11T16:07:49.428Z,88.97
2023-05-11T16:09:21.054Z,88.43
2023-05-11T16:10:52.792Z,88.93
2023-05-11T16:12:26.064Z,88.38
2023-05-11T16:13:57.684Z,88.11
2023-05-11T16:15:31.193Z,88.15
2023-05-11T16:17:03.127Z,88.43
2023-05-11T16:18:35.957Z,88.66
2023-05-11T16:20:08.809Z,88.14
2023-05-11T16:21:40.725Z,89.44
2023-05-11T16:23:12.439Z,89.27
2023-05-11T16:24:44.090Z,87.81
2023-05-11T16:26:15.688Z,88.13
2023-05-11T16:27:48.648Z,88.62
2023-05-11T16:29:20.416Z,89.06
2023-05-11T16:30:52.329Z,88.28
2023-05-11T16:32:24.530Z,88.43
2023-05-11T16:34:05.265Z,88.06
2023-05-11T16:35:36.924Z,88.28
2023-05-11T16:37:08.624Z,88.09
2023-05-11T16:38:40.486Z,88.14
2023-05-11T16:40:12.400Z,88.13
2023-05-11T16:41:44.523Z,87.30
2023-05-11T16:43:17.605Z,88.70
2023-05-11T16:44:49.284Z,88.21
2023-05-11T16:46:21.322Z,89.06
2023-05-11T16:47:52.992Z,87.84
2023-05-11T16:49:24.730Z,89.21
2023-05-11T16:50:56.657Z,88.95
2023-05-11T16:52:28.284Z,88.85
2023-05-11T16:54:00.307Z,89.37
2023-05-11T16:55:31.944Z,89.08
2023-05-11T16:57:04.052Z,88.70
2023-05-11T16:58:37.062Z,87.51
2023-05-11T17:00:09.885Z,88.84
2023-05-11T17:01:42.049Z,88.80
2023-05-11T17:03:14.186Z,88.31
2023-05-11T17:04:45.921Z,87.61
2023-05-11T17:06:20.879Z,89.02
2023-05-11T17:07:52.739Z,88.31
2023-05-11T17:09:24.548Z,88.22
2023-05-11T17:10:56.573Z,87.54
2023-05-11T17:12:28.637Z,87.99
2023-05-11T17:14:02.753Z,88.53
2023-05-11T17:15:34.540Z,88.02
2023-05-11T17:17:08.073Z,87.73
2023-05-11T17:18:39.917Z,89.22
2023-05-11T17:20:13.415Z,89.20
2023-05-11T17:21:45.626Z,89.73
2023-05-11T17:23:17.266Z,89.18
2023-05-11T17:24:48.889Z,90.72
2023-05-11T17:26:25.126Z,89.46
2023-05-11T17:27:59.345Z,89.09
2023-05-11T17:29:32.365Z,89.90
2023-05-11T17:31:08.282Z,88.71
2023-05-11T17:32:40.099Z,88.91
2023-05-11T17:34:11.967Z,88.89
2023-05-11T17:35:43.639Z,89.62
2023-05-11T17:37:30.425Z,88.91
2023-05-11T17:39:03.752Z,88.98
2023-05-11T17:40:35.364Z,89.57
2023-05-11T17:42:07.075Z,90.42
2023-05-11T17:43:38.689Z,89.57
2023-05-11T17:45:13.008Z,90.67
2023-05-11T17:46:44.713Z,90.13
2023-05-11T17:48:16.684Z,89.80
2023-05-11T17:49:48.636Z,90.49
2023-05-11T17:51:23.011Z,89.50
2023-05-11T17:52:54.652Z,88.80
2023-05-11T17:54:26.434Z,88.24
2023-05-11T17:55:58.601Z,89.36
2023-05-11T17:57:30.246Z,89.92
2023-05-11T17:59:02.285Z,89.22
2023-05-11T18:00:35.268Z,90.25
2023-05-11T18:02:07.528Z,91.10
2023-05-11T18:03:39.265Z,89.58
2023-05-11T18:05:11.170Z,89.22
2023-05-11T18:06:42.805Z,89.48
2023-05-11T18:08:17.020Z,91.35
2023-05-11T18:09:48.651Z,90.22
2023-05-11T18:11:20.259Z,90.81
2023-05-11T18:12:51.843Z,89.79
2023-05-11T18:14:23.501Z,90.75
2023-05-11T18:15:58.286Z,90.46
2023-05-11T18:17:30.038Z,90.18
2023-05-11T18:19:01.861Z,90.64
2023-05-11T18:20:33.671Z,90.53
2023-05-11T18:22:05.387Z,89.85
2023-05-11T18:23:37.202Z,91.22
2023-05-11T18:25:09.526Z,91.07
2023-05-11T18:26:41.362Z,92.92
2023-05-11T18:28:13.201Z,92.42
2023-05-11T18:29:45.103Z,92.25
2023-05-11T18:31:19.223Z,93.68
2023-05-11T18:32:50.993Z,92.79
2023-05-11T18:34:23.090Z,95.21
2023-05-11T18:35:54.916Z,95.36
2023-05-11T18:37:26.507Z,94.08
2023-05-11T18:38:58.216Z,93.38
2023-05-11T18:40:29.940Z,94.17
2023-05-11T18:42:01.578Z,94.35
2023-05-11T18:43:34.254Z,93.06
2023-05-11T18:45:07.391Z,92.79
2023-05-11T18:46:41.167Z,92.50
2023-05-11T18:48:12.891Z,94.36
2023-05-11T18:49:45.439Z,94.31
2023-05-11T18:51:19.854Z,93.25
2023-05-11T18:52:51.492Z,92.91
2023-05-11T18:54:23.150Z,93.41
2023-05-11T18:55:56.033Z,94.25
2023-05-11T18:57:28.232Z,94.40
2023-05-11T18:58:59.861Z,94.58
2023-05-11T19:00:36.854Z,94.14
2023-05-11T19:02:10.443Z,93.62
2023-05-11T19:03:42.570Z,92.94
2023-05-11T19:05:14.410Z,92.50
2023-05-11T19:06:46.034Z,92.05
2023-05-11T19:08:18.607Z,91.43
2023-05-11T19:09:51.048Z,91.72
2023-05-11T19:11:23.860Z,92.31
2023-05-11T19:12:59.184Z,92.62
2023-05-11T19:14:30.873Z,92.48
2023-05-11T19:16:03.722Z,94.13
2023-05-11T19:17:36.948Z,94.86
2023-05-11T19:19:08.820Z,93.49
2023-05-11T19:20:40.523Z,91.99
2023-05-11T19:22:12.213Z,92.24
2023-05-11T19:23:43.949Z,92.37
2023-05-11T19:25:15.761Z,92.71
2023-05-11T19:26:58.623Z,93.51
2023-05-11T19:28:34.628Z,93.91
2023-05-11T19:30:09.424Z,92.35
2023-05-11T19:31:41.147Z,91.84
2023-05-11T19:33:14.422Z,93.06
2023-05-11T19:34:46.244Z,94.37
2023-05-11T19:36:17.860Z,93.50
2023-05-11T19:37:50.563Z,93.05
2023-05-11T19:39:22.285Z,91.73
2023-05-11T19:40:54.104Z,91.91
2023-05-11T19:42:38.413Z,92.49
2023-05-11T19:44:10.756Z,92.37
2023-05-11T19:45:45.384Z,91.79
2023-05-11T19:47:17.170Z,91.72
2023-05-11T19:48:50.455Z,92.43
2023-05-11T19:50:24.474Z,91.96
2023-05-11T19:51:56.659Z,90.97
2023-05-11T19:53:28.383Z,91.17
2023-05-11T19:55:00.193Z,91.45
2023-05-11T19:56:32.898Z,90.96
2023-05-11T19:58:04.554Z,90.46
2023-05-11T19:59:37.055Z,89.85
2023-05-11T20:01:08.718Z,90.53
2023-05-11T20:02:40.693Z,90.48
2023-05-11T20:04:16.355Z,91.44